createdAt,value
2017-08-18T00:00:49.921Z,21.64
2017-08-18T00:01:49.626Z,21.62
2017-08-18T00:02:49.914Z,21.62
2017-08-18T00:03:49.619Z,21.64
2017-08-18T00:04:49.926Z,21.66
2017-08-18T00:05:49.617Z,21.64
2017-08-18T00:06:49.914Z,21.58
2017-08-18T00:07:49.919Z,21.58
2017-08-18T00:08:49.921Z,21.62
2017-08-18T00:09:49.626Z,21.6
2017-08-18T00:10:49.931Z,21.48
2017-08-18T00:11:49.632Z,21.5
2017-08-18T00:12:49.935Z,21.51
2017-08-18T00:13:49.948Z,21.51
2017-08-18T00:14:49.946Z,21.45
2017-08-18T00:15:49.952Z,21.46
2017-08-18T00:16:49.949Z,21.48
2017-08-18T00:17:49.961Z,21.39
2017-08-18T00:18:49.658Z,21.36
2017-08-18T00:19:49.984Z,21.37
2017-08-18T00:20:49.680Z,21.36
2017-08-18T00:21:49.678Z,21.3
2017-08-18T00:22:49.972Z,21.29
2017-08-18T00:23:49.670Z,21.24
2017-08-18T00:24:49.987Z,21.25
2017-08-18T00:25:49.682Z,21.27
2017-08-18T00:26:49.990Z,21.25
2017-08-18T00:27:49.987Z,21.24
2017-08-18T00:28:51.052Z,21.25
2017-08-18T00:29:49.689Z,21.25
2017-08-18T00:30:50.001Z,21.25
2017-08-18T00:31:50.005Z,21.22
2017-08-18T00:32:50.010Z,21.27
2017-08-18T00:33:50.001Z,21.22
2017-08-18T00:34:49.998Z,21.21
2017-08-18T00:35:49.698Z,21.2
2017-08-18T00:36:49.698Z,21.18
2017-08-18T00:37:50.009Z,21.15
2017-08-18T00:38:50.019Z,21.12
2017-08-18T00:39:50.018Z,21.15
2017-08-18T00:40:49.712Z,21.15
2017-08-18T00:41:50.017Z,21.14
2017-08-18T00:42:50.027Z,21.09
2017-08-18T00:43:50.059Z,21.05
2017-08-18T00:44:49.724Z,21.05
2017-08-18T00:45:49.726Z,21.06
2017-08-18T00:46:50.040Z,21
2017-08-18T00:47:50.057Z,21.05
2017-08-18T00:48:50.062Z,21.12
2017-08-18T00:49:49.738Z,21.11
2017-08-18T00:50:50.049Z,21.11
2017-08-18T00:51:50.059Z,21.12
2017-08-18T00:52:49.472Z,21.12
2017-08-18T00:53:50.066Z,21.07
2017-08-18T00:54:50.099Z,21.06
2017-08-18T00:55:50.063Z,21.07
2017-08-18T00:56:50.067Z,20.99
2017-08-18T00:57:50.080Z,21.06
2017-08-18T00:58:50.080Z,21.03
2017-08-18T00:59:49.768Z,21.03
2017-08-18T01:00:49.773Z,21.06
2017-08-18T01:01:50.080Z,21.06
2017-08-18T01:02:49.776Z,20.97
2017-08-18T01:03:50.114Z,21.07
2017-08-18T01:04:50.103Z,20.99
2017-08-18T01:05:49.786Z,21.03
2017-08-18T01:06:50.102Z,20.99
2017-08-18T01:07:49.793Z,20.99
2017-08-18T01:08:49.794Z,20.96
2017-08-18T01:09:50.112Z,20.97
2017-08-18T01:10:50.103Z,20.92
2017-08-18T01:11:49.803Z,20.92
2017-08-18T01:12:50.107Z,20.9
2017-08-18T01:13:49.815Z,20.9
2017-08-18T01:14:50.130Z,20.92
2017-08-18T01:15:50.129Z,20.92
2017-08-18T01:16:49.816Z,20.85
2017-08-18T01:17:49.820Z,20.92
2017-08-18T01:18:49.821Z,20.95
2017-08-18T01:19:49.825Z,20.97
2017-08-18T01:20:50.130Z,20.97
2017-08-18T01:21:49.832Z,20.99
2017-08-18T01:22:50.135Z,20.93
2017-08-18T01:23:50.144Z,20.93
2017-08-18T01:24:50.147Z,20.92
2017-08-18T01:25:49.844Z,20.88
2017-08-18T01:26:50.147Z,20.84
2017-08-18T01:27:50.173Z,20.81
2017-08-18T01:28:49.850Z,20.88
2017-08-18T01:29:52.807Z,20.88
2017-08-18T01:30:50.173Z,20.87
2017-08-18T01:31:50.179Z,20.8
2017-08-18T01:32:50.168Z,20.77
2017-08-18T01:33:50.203Z,20.77
2017-08-18T01:34:50.183Z,20.8
2017-08-18T01:35:50.184Z,20.74
2017-08-18T01:36:49.878Z,20.8
2017-08-18T01:37:50.181Z,20.75
2017-08-18T01:38:50.180Z,20.78
2017-08-18T01:39:49.886Z,20.77
2017-08-18T01:40:50.193Z,20.75
2017-08-18T01:41:49.888Z,20.74
2017-08-18T01:42:49.891Z,20.66
2017-08-18T01:43:50.197Z,20.69
2017-08-18T01:44:50.198Z,20.75
2017-08-18T01:45:49.618Z,20.7
2017-08-18T01:46:50.211Z,20.75
2017-08-18T01:47:49.899Z,20.75
2017-08-18T01:48:50.222Z,20.74
2017-08-18T01:49:50.210Z,20.77
2017-08-18T01:50:50.215Z,20.74
2017-08-18T01:51:50.220Z,20.62
2017-08-18T01:52:50.225Z,20.69
2017-08-18T01:53:50.221Z,20.78
2017-08-18T01:54:49.922Z,20.72
2017-08-18T01:55:49.929Z,20.7
2017-08-18T01:56:50.232Z,20.7
2017-08-18T01:57:50.235Z,20.72
2017-08-18T01:58:50.232Z,20.72
2017-08-18T01:59:50.725Z,20.69
2017-08-18T02:00:49.943Z,20.65
2017-08-18T02:01:50.248Z,20.56
2017-08-18T02:02:49.960Z,20.52
2017-08-18T02:03:50.270Z,20.58
2017-08-18T02:04:50.260Z,20.56
2017-08-18T02:05:50.326Z,20.56
2017-08-18T02:06:50.013Z,20.52
2017-08-18T02:07:50.266Z,20.52
2017-08-18T02:08:50.265Z,20.56
2017-08-18T02:09:50.264Z,20.55
2017-08-18T02:10:49.968Z,20.56
2017-08-18T02:11:49.975Z,20.55
2017-08-18T02:12:50.278Z,20.51
2017-08-18T02:13:50.294Z,20.48
2017-08-18T02:14:53.483Z,20.47
2017-08-18T02:15:50.280Z,20.55
2017-08-18T02:16:50.282Z,20.5
2017-08-18T02:17:50.288Z,20.51
2017-08-18T02:18:50.288Z,20.5
2017-08-18T02:19:50.299Z,20.58
2017-08-18T02:20:50.300Z,20.51
2017-08-18T02:21:50.304Z,20.52
2017-08-18T02:22:50.302Z,20.55
2017-08-18T02:23:50.005Z,20.52
2017-08-18T02:24:50.304Z,20.51
2017-08-18T02:25:50.314Z,20.55
2017-08-18T02:26:50.311Z,20.51
2017-08-18T02:27:50.328Z,20.52
2017-08-18T02:28:50.324Z,20.55
2017-08-18T02:29:50.329Z,20.5
2017-08-18T02:30:50.027Z,20.51
2017-08-18T02:31:50.330Z,20.51
2017-08-18T02:32:50.333Z,20.34
2017-08-18T02:33:50.330Z,20.36
2017-08-18T02:34:50.336Z,20.36
2017-08-18T02:35:50.346Z,20.29
2017-08-18T02:36:50.346Z,20.39
2017-08-18T02:37:50.350Z,20.29
2017-08-18T02:38:50.350Z,20.26
2017-08-18T02:39:50.051Z,20.26
2017-08-18T02:40:50.353Z,20.21
2017-08-18T02:41:50.111Z,20.24
2017-08-18T02:42:50.369Z,20.28
2017-08-18T02:43:50.064Z,20.28
2017-08-18T02:44:50.359Z,20.31
2017-08-18T02:45:50.434Z,20.24
2017-08-18T02:46:50.427Z,20.26
2017-08-18T02:47:50.380Z,20.32
2017-08-18T02:48:50.374Z,20.29
2017-08-18T02:49:50.374Z,20.29
2017-08-18T02:50:50.377Z,20.31
2017-08-18T02:51:50.376Z,20.26
2017-08-18T02:52:50.394Z,20.25
2017-08-18T02:53:50.396Z,20.22
2017-08-18T02:54:50.405Z,20.22
2017-08-18T02:55:50.096Z,20.21
2017-08-18T02:56:50.396Z,20.29
2017-08-18T02:57:50.401Z,20.24
2017-08-18T02:58:50.395Z,20.25
2017-08-18T02:59:50.400Z,20.24
2017-08-18T03:00:50.401Z,20.26
2017-08-18T03:01:50.412Z,20.24
2017-08-18T03:02:50.115Z,20.24
2017-08-18T03:03:50.418Z,20.26
2017-08-18T03:04:50.414Z,20.31
2017-08-18T03:05:50.421Z,20.29
2017-08-18T03:06:50.423Z,20.26
2017-08-18T03:07:50.428Z,20.21
2017-08-18T03:08:50.124Z,20.19
2017-08-18T03:09:50.444Z,20.14
2017-08-18T03:10:50.443Z,20.16
2017-08-18T03:11:50.445Z,20.14
2017-08-18T03:12:50.439Z,20.28
2017-08-18T03:13:50.443Z,20.16
2017-08-18T03:14:50.446Z,20.25
2017-08-18T03:15:50.453Z,20.19
2017-08-18T03:16:50.443Z,20.22
2017-08-18T03:17:50.450Z,20.21
2017-08-18T03:18:50.165Z,20.13
2017-08-18T03:19:50.466Z,20.14
2017-08-18T03:20:50.461Z,20.14
2017-08-18T03:21:50.458Z,20.19
2017-08-18T03:22:50.158Z,20.21
2017-08-18T03:23:50.466Z,20.16
2017-08-18T03:24:50.521Z,20.21
2017-08-18T03:25:50.559Z,20.16
2017-08-18T03:26:50.467Z,20.13
2017-08-18T03:27:50.472Z,20.18
2017-08-18T03:28:50.174Z,20.21
2017-08-18T03:29:50.475Z,20.26
2017-08-18T03:30:50.480Z,20.26
2017-08-18T03:31:50.480Z,20.24
2017-08-18T03:32:50.185Z,20.28
2017-08-18T03:33:50.513Z,20.28
2017-08-18T03:34:50.483Z,20.24
2017-08-18T03:35:50.492Z,20.14
2017-08-18T03:36:50.490Z,20.19
2017-08-18T03:37:50.499Z,20.16
2017-08-18T03:38:50.504Z,20.11
2017-08-18T03:39:50.494Z,20.14
2017-08-18T03:40:50.520Z,20.16
2017-08-18T03:41:50.503Z,20.06
2017-08-18T03:42:50.514Z,20
2017-08-18T03:43:50.517Z,20
2017-08-18T03:44:50.222Z,19.99
2017-08-18T03:45:50.519Z,19.84
2017-08-18T03:46:50.533Z,19.89
2017-08-18T03:47:50.520Z,19.79
2017-08-18T03:48:50.523Z,19.79
2017-08-18T03:49:50.529Z,19.84
2017-08-18T03:50:50.519Z,19.84
2017-08-18T03:51:50.229Z,19.71
2017-08-18T03:52:50.526Z,19.7
2017-08-18T03:53:50.519Z,19.71
2017-08-18T03:54:50.526Z,19.71
2017-08-18T03:55:50.529Z,19.69
2017-08-18T03:56:50.534Z,19.69
2017-08-18T03:57:50.527Z,19.71
2017-08-18T03:58:50.533Z,19.7
2017-08-18T03:59:50.234Z,19.67
2017-08-18T04:00:53.640Z,19.76
2017-08-18T04:01:50.240Z,19.74
2017-08-18T04:02:50.236Z,19.85
2017-08-18T04:03:50.542Z,19.79
2017-08-18T04:04:50.542Z,19.94
2017-08-18T04:05:50.542Z,19.92
2017-08-18T04:06:50.241Z,19.92
2017-08-18T04:07:50.251Z,19.88
2017-08-18T04:08:50.551Z,19.92
2017-08-18T04:09:50.547Z,19.95
2017-08-18T04:10:50.559Z,19.92
2017-08-18T04:11:50.583Z,19.84
2017-08-18T04:12:50.555Z,19.82
2017-08-18T04:13:50.559Z,19.77
2017-08-18T04:14:50.574Z,19.88
2017-08-18T04:15:50.315Z,19.66
2017-08-18T04:16:50.270Z,19.79
2017-08-18T04:17:50.262Z,19.74
2017-08-18T04:18:50.578Z,19.7
2017-08-18T04:19:50.267Z,19.79
2017-08-18T04:20:50.574Z,19.84
2017-08-18T04:21:50.277Z,19.74
2017-08-18T04:22:50.272Z,19.79
2017-08-18T04:23:50.274Z,19.71
2017-08-18T04:24:50.583Z,19.76
2017-08-18T04:25:50.581Z,19.71
2017-08-18T04:26:50.583Z,19.84
2017-08-18T04:27:50.589Z,19.79
2017-08-18T04:28:50.587Z,19.82
2017-08-18T04:29:50.286Z,19.84
2017-08-18T04:30:51.795Z,19.88
2017-08-18T04:31:50.593Z,19.84
2017-08-18T04:32:50.600Z,19.85
2017-08-18T04:33:50.601Z,19.86
2017-08-18T04:34:50.604Z,19.85
2017-08-18T04:35:50.601Z,19.84
2017-08-18T04:36:50.605Z,19.81
2017-08-18T04:37:50.027Z,19.81
2017-08-18T04:38:50.312Z,19.88
2017-08-18T04:39:50.613Z,19.84
2017-08-18T04:40:50.621Z,19.74
2017-08-18T04:41:50.617Z,19.84
2017-08-18T04:42:50.618Z,19.84
2017-08-18T04:43:50.321Z,19.85
2017-08-18T04:44:50.626Z,19.86
2017-08-18T04:45:50.628Z,19.95
2017-08-18T04:46:50.328Z,19.92
2017-08-18T04:47:50.652Z,19.99
2017-08-18T04:48:50.343Z,19.94
2017-08-18T04:49:50.643Z,20.06
2017-08-18T04:50:50.636Z,20.13
2017-08-18T04:51:50.648Z,20.19
2017-08-18T04:52:50.647Z,20.16
2017-08-18T04:53:50.345Z,20.37
2017-08-18T04:54:50.648Z,20.31
2017-08-18T04:55:50.660Z,20.41
2017-08-18T04:56:50.659Z,20.4
2017-08-18T04:57:50.658Z,20.34
2017-08-18T04:58:50.662Z,20.56
2017-08-18T04:59:50.659Z,20.78
2017-08-18T05:00:50.676Z,21.09
2017-08-18T05:01:50.664Z,21.35
2017-08-18T05:02:50.664Z,21.54
2017-08-18T05:03:50.377Z,21.69
2017-08-18T05:04:50.680Z,21.89
2017-08-18T05:05:50.684Z,21.99
2017-08-18T05:06:50.685Z,22.02
2017-08-18T05:07:50.383Z,22.06
2017-08-18T05:08:50.711Z,22.2
2017-08-18T05:09:50.693Z,22.35
2017-08-18T05:10:50.723Z,22.69
2017-08-18T05:11:50.711Z,23
2017-08-18T05:12:50.709Z,23.23
2017-08-18T05:13:50.710Z,23.46
2017-08-18T05:14:50.107Z,23.59
2017-08-18T05:15:50.712Z,23.78
2017-08-18T05:16:50.724Z,23.95
2017-08-18T05:17:50.728Z,24.32
2017-08-18T05:18:50.745Z,24.51
2017-08-18T05:19:50.759Z,24.57
2017-08-18T05:20:50.755Z,24.36
2017-08-18T05:21:50.760Z,24.16
2017-08-18T05:22:50.755Z,23.98
2017-08-18T05:23:50.767Z,23.77
2017-08-18T05:24:50.461Z,23.56
2017-08-18T05:25:50.768Z,23.48
2017-08-18T05:26:50.476Z,23.25
2017-08-18T05:27:50.789Z,23.06
2017-08-18T05:28:50.499Z,22.85
2017-08-18T05:29:50.785Z,22.73
2017-08-18T05:30:50.792Z,22.62
2017-08-18T05:31:50.836Z,22.32
2017-08-18T05:32:50.807Z,22.14
2017-08-18T05:33:50.837Z,22.07
2017-08-18T05:34:50.510Z,21.92
2017-08-18T05:35:50.511Z,21.89
2017-08-18T05:36:50.526Z,21.77
2017-08-18T05:37:50.561Z,21.79
2017-08-18T05:38:50.868Z,21.79
2017-08-18T05:39:50.838Z,21.69
2017-08-18T05:40:50.865Z,21.66
2017-08-18T05:41:50.850Z,21.6
2017-08-18T05:42:50.869Z,21.52
2017-08-18T05:43:50.543Z,21.5
2017-08-18T05:44:50.882Z,21.51
2017-08-18T05:45:50.867Z,21.54
2017-08-18T05:46:51.810Z,21.48
2017-08-18T05:47:50.882Z,21.4
2017-08-18T05:48:50.889Z,21.37
2017-08-18T05:49:50.875Z,21.39
2017-08-18T05:50:50.876Z,21.43
2017-08-18T05:51:50.894Z,21.45
2017-08-18T05:52:50.283Z,21.51
2017-08-18T05:53:50.893Z,21.6
2017-08-18T05:54:50.592Z,21.69
2017-08-18T05:55:50.895Z,21.8
2017-08-18T05:56:50.931Z,21.89
2017-08-18T05:57:50.595Z,22.06
2017-08-18T05:58:50.930Z,22.2
2017-08-18T05:59:50.937Z,22.28
2017-08-18T06:00:50.932Z,22.35
2017-08-18T06:01:52.768Z,22.51
2017-08-18T06:02:50.636Z,22.63
2017-08-18T06:03:50.932Z,22.81
2017-08-18T06:04:50.939Z,22.88
2017-08-18T06:05:50.954Z,22.94
2017-08-18T06:06:50.949Z,23.08
2017-08-18T06:07:50.967Z,22.99
2017-08-18T06:08:50.942Z,22.99
2017-08-18T06:09:50.961Z,23.08
2017-08-18T06:10:50.962Z,23.13
2017-08-18T06:11:50.976Z,23.09
2017-08-18T06:12:50.984Z,23.17
2017-08-18T06:13:50.967Z,23.12
2017-08-18T06:14:50.994Z,23.06
2017-08-18T06:15:50.983Z,23.03
2017-08-18T06:16:50.996Z,23.1
2017-08-18T06:17:50.990Z,23.05
2017-08-18T06:18:50.999Z,23.06
2017-08-18T06:19:51.007Z,23.05
2017-08-18T06:20:51.010Z,23.08
2017-08-18T06:21:50.695Z,23.12
2017-08-18T06:22:51.022Z,23.17
2017-08-18T06:23:51.037Z,23.25
2017-08-18T06:24:50.731Z,23.25
2017-08-18T06:25:50.719Z,23.27
2017-08-18T06:26:51.046Z,23.15
2017-08-18T06:27:50.732Z,23.08
2017-08-18T06:28:51.057Z,23.18
2017-08-18T06:29:51.033Z,23.21
2017-08-18T06:30:51.052Z,23.36
2017-08-18T06:31:54.209Z,23.47
2017-08-18T06:32:51.052Z,23.51
2017-08-18T06:33:50.749Z,23.68
2017-08-18T06:34:50.749Z,23.91
2017-08-18T06:35:51.077Z,24.26
2017-08-18T06:36:50.780Z,24.7
2017-08-18T06:37:51.085Z,24.91
2017-08-18T06:38:51.077Z,25.1
2017-08-18T06:39:50.800Z,25.22
2017-08-18T06:40:51.089Z,25.23
2017-08-18T06:41:51.094Z,25.18
2017-08-18T06:42:51.096Z,25.23
2017-08-18T06:43:50.823Z,25.47
2017-08-18T06:44:50.839Z,25.65
2017-08-18T06:45:50.530Z,26.18
2017-08-18T06:46:51.134Z,26.6
2017-08-18T06:47:50.893Z,27
2017-08-18T06:48:51.134Z,27.35
2017-08-18T06:49:51.134Z,27.7
2017-08-18T06:50:51.149Z,28.08
2017-08-18T06:51:51.140Z,28.41
2017-08-18T06:52:51.158Z,28.62
2017-08-18T06:53:51.161Z,28.48
2017-08-18T06:54:51.162Z,28.41
2017-08-18T06:55:51.174Z,28.22
2017-08-18T06:56:51.183Z,28.08
2017-08-18T06:57:51.185Z,27.68
2017-08-18T06:58:51.191Z,27.3
2017-08-18T06:59:51.200Z,27
2017-08-18T07:00:51.214Z,26.71
2017-08-18T07:01:50.630Z,26.58
2017-08-18T07:02:53.848Z,26.4
2017-08-18T07:03:51.220Z,26.33
2017-08-18T07:04:51.237Z,26.48
2017-08-18T07:05:51.234Z,26.55
2017-08-18T07:06:51.244Z,26.48
2017-08-18T07:07:51.006Z,26.37
2017-08-18T07:08:51.255Z,26.16
2017-08-18T07:09:51.264Z,25.93
2017-08-18T07:10:51.269Z,25.73
2017-08-18T07:11:51.292Z,25.63
2017-08-18T07:12:50.981Z,25.35
2017-08-18T07:13:51.287Z,25.21
2017-08-18T07:14:51.291Z,25.11
2017-08-18T07:15:51.011Z,25.36
2017-08-18T07:16:51.304Z,25.5
2017-08-18T07:17:51.008Z,25.58
2017-08-18T07:18:51.014Z,25.62
2017-08-18T07:19:51.330Z,25.63
2017-08-18T07:20:51.327Z,25.62
2017-08-18T07:21:51.332Z,25.6
2017-08-18T07:22:51.335Z,25.63
2017-08-18T07:23:51.349Z,25.65
2017-08-18T07:24:51.351Z,25.73
2017-08-18T07:25:51.357Z,26.03
2017-08-18T07:26:51.077Z,26.43
2017-08-18T07:27:51.082Z,26.71
2017-08-18T07:28:51.381Z,26.93
2017-08-18T07:29:51.385Z,27.02
2017-08-18T07:30:51.389Z,26.97
2017-08-18T07:31:51.395Z,26.9
2017-08-18T07:32:51.247Z,26.7
2017-08-18T07:33:51.399Z,26.66
2017-08-18T07:34:51.412Z,26.55
2017-08-18T07:35:51.418Z,26.41
2017-08-18T07:36:51.432Z,26.22
2017-08-18T07:37:51.433Z,26.07
2017-08-18T07:38:51.438Z,26.1
2017-08-18T07:39:51.438Z,25.98
2017-08-18T07:40:51.150Z,25.87
2017-08-18T07:41:51.450Z,25.83
2017-08-18T07:42:51.464Z,25.75
2017-08-18T07:43:51.177Z,25.66
2017-08-18T07:44:51.178Z,25.62
2017-08-18T07:45:51.184Z,25.63
2017-08-18T07:46:51.497Z,25.65
2017-08-18T07:47:56.254Z,25.62
2017-08-18T07:48:51.493Z,25.59
2017-08-18T07:49:51.190Z,25.48
2017-08-18T07:50:51.528Z,25.35
2017-08-18T07:51:51.208Z,25.4
2017-08-18T07:52:51.226Z,25.38
2017-08-18T07:53:51.211Z,25.35
2017-08-18T07:54:51.533Z,25.25
2017-08-18T07:55:51.220Z,25.31
2017-08-18T07:56:51.240Z,25.18
2017-08-18T07:57:51.545Z,25.17
2017-08-18T07:58:51.563Z,25.18
2017-08-18T07:59:51.269Z,25.33
2017-08-18T08:00:51.269Z,25.36
2017-08-18T08:01:51.582Z,25.47
2017-08-18T08:02:51.581Z,25.62
2017-08-18T08:03:51.282Z,25.7
2017-08-18T08:04:51.600Z,26.09
2017-08-18T08:05:51.294Z,26.55
2017-08-18T08:06:51.602Z,27.05
2017-08-18T08:07:51.295Z,27.52
2017-08-18T08:08:50.992Z,28.22
2017-08-18T08:09:50.995Z,28.78
2017-08-18T08:10:51.317Z,29.2
2017-08-18T08:11:51.315Z,29.5
2017-08-18T08:12:51.338Z,29.78
2017-08-18T08:13:51.630Z,30.08
2017-08-18T08:14:51.338Z,30.25
2017-08-18T08:15:51.355Z,30.43
2017-08-18T08:16:51.340Z,30.59
2017-08-18T08:17:51.350Z,30.63
2017-08-18T08:18:51.358Z,30.53
2017-08-18T08:19:51.377Z,30.48
2017-08-18T08:20:51.377Z,30.51
2017-08-18T08:21:51.375Z,30.78
2017-08-18T08:22:51.697Z,31.18
2017-08-18T08:23:51.700Z,31.85
2017-08-18T08:24:51.701Z,32.37
2017-08-18T08:25:51.407Z,32.93
2017-08-18T08:26:51.415Z,33.23
2017-08-18T08:27:51.125Z,33.47
2017-08-18T08:28:51.431Z,33.8
2017-08-18T08:29:51.747Z,33.86
2017-08-18T08:30:51.758Z,33.98
2017-08-18T08:31:51.761Z,34.32
2017-08-18T08:32:51.183Z,34.33
2017-08-18T08:33:53.936Z,34.29
2017-08-18T08:34:51.498Z,34.24
2017-08-18T08:35:51.500Z,34.33
2017-08-18T08:36:51.520Z,34.27
2017-08-18T08:37:51.523Z,34.29
2017-08-18T08:38:51.538Z,34.17
2017-08-18T08:39:51.542Z,33.79
2017-08-18T08:40:51.853Z,33.2
2017-08-18T08:41:51.872Z,32.86
2017-08-18T08:42:51.875Z,32.37
2017-08-18T08:43:51.602Z,31.85
2017-08-18T08:44:51.898Z,31.1
2017-08-18T08:45:51.912Z,30.46
2017-08-18T08:46:51.920Z,30.09
2017-08-18T08:47:51.921Z,29.75
2017-08-18T08:48:51.638Z,29.44
2017-08-18T08:49:51.642Z,29.17
2017-08-18T08:50:51.652Z,28.88
2017-08-18T08:51:51.668Z,28.81
2017-08-18T08:52:51.667Z,28.88
2017-08-18T08:53:51.979Z,28.84
2017-08-18T08:54:51.689Z,28.54
2017-08-18T08:55:51.700Z,28.26
2017-08-18T08:56:52.017Z,28.17
2017-08-18T08:57:52.038Z,28
2017-08-18T08:58:51.717Z,27.93
2017-08-18T08:59:52.029Z,27.95
2017-08-18T09:00:52.040Z,27.89
2017-08-18T09:01:51.743Z,27.89
2017-08-18T09:02:52.071Z,27.9
2017-08-18T09:03:57.071Z,27.9
2017-08-18T09:04:52.061Z,27.96
2017-08-18T09:05:52.089Z,27.93
2017-08-18T09:06:52.095Z,27.96
2017-08-18T09:07:52.087Z,28.07
2017-08-18T09:08:51.794Z,28.32
2017-08-18T09:09:52.095Z,28.42
2017-08-18T09:10:51.806Z,28.3
2017-08-18T09:11:52.113Z,28.23
2017-08-18T09:12:51.811Z,28.26
2017-08-18T09:13:51.821Z,28.26
2017-08-18T09:14:52.138Z,28.42
2017-08-18T09:15:52.133Z,28.42
2017-08-18T09:16:52.154Z,28.38
2017-08-18T09:17:51.854Z,28.62
2017-08-18T09:18:52.168Z,28.51
2017-08-18T09:19:51.866Z,28.51
2017-08-18T09:20:51.869Z,28.6
2017-08-18T09:21:52.175Z,28.75
2017-08-18T09:22:52.198Z,28.98
2017-08-18T09:23:51.887Z,29.1
2017-08-18T09:24:51.901Z,29.38
2017-08-18T09:25:51.902Z,29.49
2017-08-18T09:26:51.909Z,29.63
2017-08-18T09:27:51.915Z,29.76
2017-08-18T09:28:51.923Z,29.79
2017-08-18T09:29:52.230Z,29.72
2017-08-18T09:30:51.636Z,29.78
2017-08-18T09:31:52.243Z,29.79
2017-08-18T09:32:52.252Z,29.75
2017-08-18T09:33:52.259Z,29.69
2017-08-18T09:34:56.269Z,29.54
2017-08-18T09:35:51.968Z,29.5
2017-08-18T09:36:52.282Z,29.42
2017-08-18T09:37:51.982Z,29.31
2017-08-18T09:38:51.988Z,29.2
2017-08-18T09:39:52.295Z,29.27
2017-08-18T09:40:52.302Z,29.23
2017-08-18T09:41:52.308Z,29.35
2017-08-18T09:42:52.017Z,29.39
2017-08-18T09:43:52.323Z,29.57
2017-08-18T09:44:52.327Z,29.73
2017-08-18T09:45:52.350Z,29.94
2017-08-18T09:46:52.045Z,29.98
2017-08-18T09:47:52.350Z,30.15
2017-08-18T09:48:52.358Z,30.05
2017-08-18T09:49:52.419Z,30
2017-08-18T09:50:52.376Z,30.02
2017-08-18T09:51:52.077Z,30
2017-08-18T09:52:52.107Z,29.88
2017-08-18T09:53:52.396Z,30.02
2017-08-18T09:54:52.928Z,29.94
2017-08-18T09:55:52.440Z,30
2017-08-18T09:56:52.197Z,30.08
2017-08-18T09:57:52.533Z,30.05
2017-08-18T09:58:51.885Z,30
2017-08-18T09:59:52.199Z,29.91
2017-08-18T10:00:52.213Z,29.9
2017-08-18T10:01:51.901Z,29.91
2017-08-18T10:02:52.263Z,29.88
2017-08-18T10:03:52.248Z,29.88
2017-08-18T10:04:52.229Z,29.88
2017-08-18T10:05:52.266Z,29.91
2017-08-18T10:06:52.251Z,29.95
2017-08-18T10:07:52.609Z,29.84
2017-08-18T10:08:52.561Z,29.72
2017-08-18T10:09:52.299Z,29.75
2017-08-18T10:10:52.343Z,29.68
2017-08-18T10:11:52.293Z,29.82
2017-08-18T10:12:52.290Z,29.82
2017-08-18T10:13:52.536Z,29.93
2017-08-18T10:14:52.532Z,30.06
2017-08-18T10:15:52.538Z,30.09
2017-08-18T10:16:52.242Z,30.06
2017-08-18T10:17:51.949Z,30.09
2017-08-18T10:18:52.569Z,30.15
2017-08-18T10:19:52.570Z,30.18
2017-08-18T10:20:52.580Z,30.34
2017-08-18T10:21:52.270Z,30.35
2017-08-18T10:22:52.286Z,30.44
2017-08-18T10:23:52.285Z,30.46
2017-08-18T10:24:52.593Z,30.46
2017-08-18T10:25:52.621Z,30.43
2017-08-18T10:26:52.618Z,30.43
2017-08-18T10:27:52.622Z,30.44
2017-08-18T10:28:52.626Z,30.48
2017-08-18T10:29:52.636Z,30.5
2017-08-18T10:30:52.652Z,30.51
2017-08-18T10:31:52.362Z,30.39
2017-08-18T10:32:52.346Z,30.35
2017-08-18T10:33:52.658Z,30.13
2017-08-18T10:34:52.360Z,30.09
2017-08-18T10:35:54.369Z,30.13
2017-08-18T10:36:52.686Z,30.31
2017-08-18T10:37:52.384Z,30.4
2017-08-18T10:38:52.085Z,30.48
2017-08-18T10:39:52.698Z,30.54
2017-08-18T10:40:52.714Z,30.57
2017-08-18T10:41:52.716Z,30.63
2017-08-18T10:42:52.713Z,30.62
2017-08-18T10:43:52.720Z,30.59
2017-08-18T10:44:52.730Z,30.62
2017-08-18T10:45:52.756Z,30.63
2017-08-18T10:46:52.754Z,30.62
2017-08-18T10:47:52.447Z,30.59
2017-08-18T10:48:52.461Z,30.73
2017-08-18T10:49:52.164Z,30.63
2017-08-18T10:50:52.472Z,30.57
2017-08-18T10:51:52.179Z,30.55
2017-08-18T10:52:52.782Z,30.48
2017-08-18T10:53:52.793Z,30.44
2017-08-18T10:54:52.494Z,30.21
2017-08-18T10:55:52.837Z,30.16
2017-08-18T10:56:52.817Z,30.05
2017-08-18T10:57:52.840Z,30.02
2017-08-18T10:58:52.216Z,30.03
2017-08-18T10:59:52.532Z,30.02
2017-08-18T11:00:52.844Z,29.93
2017-08-18T11:01:52.675Z,29.87
2017-08-18T11:02:52.248Z,29.76
2017-08-18T11:03:52.868Z,29.91
2017-08-18T11:04:52.564Z,30.03
2017-08-18T11:05:54.235Z,30.05
2017-08-18T11:06:52.569Z,30.08
2017-08-18T11:07:52.575Z,30.23
2017-08-18T11:08:52.933Z,30.28
2017-08-18T11:09:52.590Z,30.43
2017-08-18T11:10:52.897Z,30.47
2017-08-18T11:11:52.903Z,30.65
2017-08-18T11:12:53.024Z,30.61
2017-08-18T11:13:52.916Z,30.63
2017-08-18T11:14:52.923Z,30.69
2017-08-18T11:15:52.640Z,30.77
2017-08-18T11:16:52.945Z,30.84
2017-08-18T11:17:52.969Z,30.73
2017-08-18T11:18:52.953Z,30.75
2017-08-18T11:19:52.353Z,30.83
2017-08-18T11:20:52.978Z,30.88
2017-08-18T11:21:52.369Z,31.03
2017-08-18T11:22:52.975Z,31.14
2017-08-18T11:23:52.980Z,31.33
2017-08-18T11:24:52.990Z,31.28
2017-08-18T11:25:53.005Z,31.39
2017-08-18T11:26:53.004Z,31.46
2017-08-18T11:27:52.730Z,31.46
2017-08-18T11:28:52.720Z,31.44
2017-08-18T11:29:53.023Z,31.51
2017-08-18T11:30:52.727Z,31.42
2017-08-18T11:31:53.697Z,31.46
2017-08-18T11:32:53.191Z,31.52
2017-08-18T11:33:52.749Z,31.55
2017-08-18T11:34:53.074Z,31.61
2017-08-18T11:35:53.075Z,31.64
2017-08-18T11:36:52.788Z,31.61
2017-08-18T11:37:53.088Z,31.49
2017-08-18T11:38:52.788Z,31.51
2017-08-18T11:39:53.095Z,31.44
2017-08-18T11:40:53.113Z,31.31
2017-08-18T11:41:52.814Z,31.37
2017-08-18T11:42:52.829Z,31.54
2017-08-18T11:43:53.134Z,31.51
2017-08-18T11:44:52.527Z,31.36
2017-08-18T11:45:52.836Z,31.18
2017-08-18T11:46:52.865Z,31.09
2017-08-18T11:47:52.847Z,31.1
2017-08-18T11:48:52.861Z,31.06
2017-08-18T11:49:53.180Z,31.17
2017-08-18T11:50:53.181Z,31.21
2017-08-18T11:51:53.184Z,31.25
2017-08-18T11:52:53.182Z,31.29
2017-08-18T11:53:53.191Z,31.29
2017-08-18T11:54:53.211Z,31.39
2017-08-18T11:55:53.205Z,31.43
2017-08-18T11:56:53.212Z,31.46
2017-08-18T11:57:53.226Z,31.52
2017-08-18T11:58:53.234Z,31.44
2017-08-18T11:59:53.251Z,31.61
2017-08-18T12:00:52.947Z,31.55
2017-08-18T12:01:53.257Z,31.44
2017-08-18T12:02:52.985Z,31.47
2017-08-18T12:03:52.965Z,31.33
2017-08-18T12:04:53.267Z,31.09
2017-08-18T12:05:53.274Z,30.99
2017-08-18T12:06:55.148Z,30.72
2017-08-18T12:07:53.294Z,30.7
2017-08-18T12:08:52.998Z,30.73
2017-08-18T12:09:53.303Z,30.8
2017-08-18T12:10:52.720Z,30.81
2017-08-18T12:11:53.329Z,30.85
2017-08-18T12:12:53.341Z,31.02
2017-08-18T12:13:53.366Z,31.06
2017-08-18T12:14:53.044Z,31.22
2017-08-18T12:15:53.346Z,31.28
2017-08-18T12:16:53.372Z,31.29
2017-08-18T12:17:53.062Z,31.34
2017-08-18T12:18:53.395Z,31.46
2017-08-18T12:19:53.081Z,31.46
2017-08-18T12:20:53.110Z,31.65
2017-08-18T12:21:53.494Z,31.73
2017-08-18T12:22:53.106Z,31.84
2017-08-18T12:23:53.161Z,31.89
2017-08-18T12:24:53.444Z,31.76
2017-08-18T12:25:53.442Z,31.81
2017-08-18T12:26:53.428Z,31.87
2017-08-18T12:27:53.451Z,31.69
2017-08-18T12:28:53.161Z,31.69
2017-08-18T12:29:53.455Z,31.77
2017-08-18T12:30:53.467Z,31.8
2017-08-18T12:31:53.170Z,31.94
2017-08-18T12:32:53.484Z,32.01
2017-08-18T12:33:53.194Z,32.09
2017-08-18T12:34:53.508Z,32.21
2017-08-18T12:35:53.215Z,32.31
2017-08-18T12:36:56.727Z,32.56
2017-08-18T12:37:53.510Z,32.59
2017-08-18T12:38:53.514Z,32.73
2017-08-18T12:39:53.518Z,32.85
2017-08-18T12:40:53.228Z,32.9
2017-08-18T12:41:53.545Z,32.92
2017-08-18T12:42:53.562Z,33
2017-08-18T12:43:53.560Z,33.01
2017-08-18T12:44:53.559Z,33.09
2017-08-18T12:45:53.572Z,33.2
2017-08-18T12:46:53.585Z,33.27
2017-08-18T12:47:53.580Z,33.27
2017-08-18T12:48:53.606Z,33.11
2017-08-18T12:49:53.624Z,33.2
2017-08-18T12:50:53.609Z,33.14
2017-08-18T12:51:53.307Z,33.15
2017-08-18T12:52:53.015Z,33.32
2017-08-18T12:53:53.646Z,33.36
2017-08-18T12:54:53.635Z,33.15
2017-08-18T12:55:53.647Z,33.15